sensor_id;sensor_type;location;lat;lon;timestamp;P1;durP1;ratioP1;P2;durP2;ratioP2
42742;SDS011;28397;44.552;-0.848;2022-12-18T00:01:45;15.52;;;13.90;;
42742;SDS011;28397;44.552;-0.848;2022-12-18T00:04:29;15.70;;;13.30;;
42742;SDS011;28397;44.552;-0.848;2022-12-18T00:06:55;15.18;;;13.10;;
42742;SDS011;28397;44.552;-0.848;2022-12-18T00:09:20;14.60;;;13.05;;
42742;SDS011;28397;44.552;-0.848;2022-12-18T00:11:46;14.27;;;12.77;;
42742;SDS011;28397;44.552;-0.848;2022-12-18T00:14:13;12.52;;;11.20;;
42742;SDS011;28397;44.552;-0.848;2022-12-18T00:16:39;14.30;;;12.80;;
42742;SDS011;28397;44.552;-0.848;2022-12-18T00:19:05;14.40;;;12.85;;
42742;SDS011;28397;44.552;-0.848;2022-12-18T00:21:32;13.57;;;11.75;;
42742;SDS011;28397;44.552;-0.848;2022-12-18T00:23:59;14.05;;;12.23;;
42742;SDS011;28397;44.552;-0.848;2022-12-18T00:26:26;15.05;;;13.48;;
42742;SDS011;28397;44.552;-0.848;2022-12-18T00:28:54;13.85;;;12.55;;
42742;SDS011;28397;44.552;-0.848;2022-12-18T00:31:22;14.65;;;13.13;;
42742;SDS011;28397;44.552;-0.848;2022-12-18T00:33:49;14.50;;;13.13;;
42742;SDS011;28397;44.552;-0.848;2022-12-18T00:36:16;14.40;;;12.95;;
42742;SDS011;28397;44.552;-0.848;2022-12-18T00:38:43;15.98;;;14.35;;
42742;SDS011;28397;44.552;-0.848;2022-12-18T00:41:10;14.05;;;12.70;;
42742;SDS011;28397;44.552;-0.848;2022-12-18T00:43:38;14.35;;;12.88;;
42742;SDS011;28397;44.552;-0.848;2022-12-18T00:46:04;16.65;;;14.13;;
42742;SDS011;28397;44.552;-0.848;2022-12-18T00:48:30;15.95;;;14.38;;
42742;SDS011;28397;44.552;-0.848;2022-12-18T00:50:57;13.50;;;12.20;;
42742;SDS011;28397;44.552;-0.848;2022-12-18T00:53:23;13.05;;;11.85;;
42742;SDS011;28397;44.552;-0.848;2022-12-18T00:55:48;15.90;;;14.30;;
42742;SDS011;28397;44.552;-0.848;2022-12-18T00:58:15;13.90;;;12.10;;
42742;SDS011;28397;44.552;-0.848;2022-12-18T01:00:42;16.17;;;14.23;;
42742;SDS011;28397;44.552;-0.848;2022-12-18T01:03:09;15.55;;;14.15;;
42742;SDS011;28397;44.552;-0.848;2022-12-18T01:05:39;15.63;;;14.02;;
42742;SDS011;28397;44.552;-0.848;2022-12-18T01:08:05;18.95;;;17.30;;
42742;SDS011;28397;44.552;-0.848;2022-12-18T01:10:31;17.00;;;15.15;;
42742;SDS011;28397;44.552;-0.848;2022-12-18T01:12:57;16.15;;;14.57;;
42742;SDS011;28397;44.552;-0.848;2022-12-18T01:15:22;15.85;;;14.27;;
42742;SDS011;28397;44.552;-0.848;2022-12-18T01:17:48;16.48;;;14.80;;
42742;SDS011;28397;44.552;-0.848;2022-12-18T01:20:16;16.58;;;15.07;;
42742;SDS011;28397;44.552;-0.848;2022-12-18T01:22:42;16.23;;;14.57;;
42742;SDS011;28397;44.552;-0.848;2022-12-18T01:25:08;16.67;;;14.55;;
42742;SDS011;28397;44.552;-0.848;2022-12-18T01:27:33;16.45;;;14.85;;
42742;SDS011;28397;44.552;-0.848;2022-12-18T01:29:59;16.67;;;14.98;;
42742;SDS011;28397;44.552;-0.848;2022-12-18T01:32:25;14.48;;;13.07;;
42742;SDS011;28397;44.552;-0.848;2022-12-18T01:34:51;16.58;;;15.07;;
42742;SDS011;28397;44.552;-0.848;2022-12-18T01:37:16;16.60;;;14.95;;
42742;SDS011;28397;44.552;-0.848;2022-12-18T01:39:42;15.52;;;14.05;;
42742;SDS011;28397;44.552;-0.848;2022-12-18T01:42:11;16.90;;;15.30;;
42742;SDS011;28397;44.552;-0.848;2022-12-18T01:52:51;15.90;;;14.30;;
42742;SDS011;28397;44.552;-0.848;2022-12-18T01:55:20;16.50;;;14.80;;
42742;SDS011;28397;44.552;-0.848;2022-12-18T01:57:51;15.95;;;14.35;;
42742;SDS011;28397;44.552;-0.848;2022-12-18T02:00:19;15.68;;;14.13;;
42742;SDS011;28397;44.552;-0.848;2022-12-18T02:02:47;13.60;;;12.30;;
42742;SDS011;28397;44.552;-0.848;2022-12-18T02:05:17;15.75;;;14.23;;
42742;SDS011;28397;44.552;-0.848;2022-12-18T02:18:48;15.43;;;13.77;;
42742;SDS011;28397;44.552;-0.848;2022-12-18T02:21:25;15.90;;;13.63;;
42742;SDS011;28397;44.552;-0.848;2022-12-18T02:26:49;15.25;;;13.65;;
42742;SDS011;28397;44.552;-0.848;2022-12-18T02:29:36;13.68;;;11.98;;
42742;SDS011;28397;44.552;-0.848;2022-12-18T02:32:03;13.45;;;12.15;;
42742;SDS011;28397;44.552;-0.848;2022-12-18T02:34:36;14.27;;;12.67;;
42742;SDS011;28397;44.552;-0.848;2022-12-18T02:37:04;13.80;;;12.40;;
42742;SDS011;28397;44.552;-0.848;2022-12-18T02:39:35;13.88;;;12.57;;
42742;SDS011;28397;44.552;-0.848;2022-12-18T02:42:03;12.93;;;11.73;;
42742;SDS011;28397;44.552;-0.848;2022-12-18T02:44:33;14.23;;;12.77;;
42742;SDS011;28397;44.552;-0.848;2022-12-18T02:47:20;12.70;;;11.40;;
42742;SDS011;28397;44.552;-0.848;2022-12-18T02:55:28;12.70;;;11.55;;
42742;SDS011;28397;44.552;-0.848;2022-12-18T02:57:47;12.50;;;11.30;;
42742;SDS011;28397;44.552;-0.848;2022-12-18T03:00:42;13.02;;;11.73;;
42742;SDS011;28397;44.552;-0.848;2022-12-18T03:03:37;12.23;;;11.02;;
42742;SDS011;28397;44.552;-0.848;2022-12-18T03:06:23;12.32;;;11.23;;
42742;SDS011;28397;44.552;-0.848;2022-12-18T03:08:55;12.10;;;10.93;;
42742;SDS011;28397;44.552;-0.848;2022-12-18T03:11:24;12.40;;;11.20;;
42742;SDS011;28397;44.552;-0.848;2022-12-18T03:14:11;12.10;;;10.90;;
42742;SDS011;28397;44.552;-0.848;2022-12-18T03:16:40;12.82;;;11.38;;
42742;SDS011;28397;44.552;-0.848;2022-12-18T03:19:09;11.90;;;10.80;;
42742;SDS011;28397;44.552;-0.848;2022-12-18T03:21:42;12.23;;;11.13;;
42742;SDS011;28397;44.552;-0.848;2022-12-18T03:24:10;11.50;;;10.40;;
42742;SDS011;28397;44.552;-0.848;2022-12-18T03:26:37;11.27;;;10.15;;
42742;SDS011;28397;44.552;-0.848;2022-12-18T03:29:09;11.05;;;10.05;;
42742;SDS011;28397;44.552;-0.848;2022-12-18T03:31:42;10.35;;;9.40;;
42742;SDS011;28397;44.552;-0.848;2022-12-18T03:34:15;11.55;;;10.48;;
42742;SDS011;28397;44.552;-0.848;2022-12-18T03:36:45;11.38;;;10.27;;
42742;SDS011;28397;44.552;-0.848;2022-12-18T03:39:11;10.38;;;9.38;;
42742;SDS011;28397;44.552;-0.848;2022-12-18T03:44:55;9.60;;;8.80;;
42742;SDS011;28397;44.552;-0.848;2022-12-18T03:50:19;10.85;;;9.85;;
42742;SDS011;28397;44.552;-0.848;2022-12-18T03:52:52;10.38;;;9.43;;
42742;SDS011;28397;44.552;-0.848;2022-12-18T03:55:36;10.48;;;9.57;;
42742;SDS011;28397;44.552;-0.848;2022-12-18T03:58:03;10.93;;;9.82;;
42742;SDS011;28397;44.552;-0.848;2022-12-18T04:00:32;10.82;;;9.82;;
42742;SDS011;28397;44.552;-0.848;2022-12-18T04:02:59;10.38;;;9.48;;
42742;SDS011;28397;44.552;-0.848;2022-12-18T04:05:27;11.07;;;10.00;;
42742;SDS011;28397;44.552;-0.848;2022-12-18T04:07:54;11.32;;;10.32;;
42742;SDS011;28397;44.552;-0.848;2022-12-18T04:10:22;11.98;;;10.88;;
42742;SDS011;28397;44.552;-0.848;2022-12-18T04:12:47;12.50;;;11.43;;
42742;SDS011;28397;44.552;-0.848;2022-12-18T04:15:13;13.57;;;12.38;;
42742;SDS011;28397;44.552;-0.848;2022-12-18T04:17:43;13.73;;;12.48;;
42742;SDS011;28397;44.552;-0.848;2022-12-18T04:20:13;13.07;;;11.88;;
42742;SDS011;28397;44.552;-0.848;2022-12-18T04:22:39;18.50;;;16.95;;
42742;SDS011;28397;44.552;-0.848;2022-12-18T04:25:05;13.45;;;12.25;;
42742;SDS011;28397;44.552;-0.848;2022-12-18T04:27:30;13.43;;;12.23;;
42742;SDS011;28397;44.552;-0.848;2022-12-18T04:29:56;13.63;;;12.40;;
42742;SDS011;28397;44.552;-0.848;2022-12-18T04:32:22;13.55;;;12.30;;
42742;SDS011;28397;44.552;-0.848;2022-12-18T04:34:48;14.75;;;13.45;;
42742;SDS011;28397;44.552;-0.848;2022-12-18T04:37:13;13.35;;;12.25;;
42742;SDS011;28397;44.552;-0.848;2022-12-18T04:39:39;13.70;;;12.50;;
42742;SDS011;28397;44.552;-0.848;2022-12-18T04:42:05;13.45;;;12.25;;
42742;SDS011;28397;44.552;-0.848;2022-12-18T04:44:31;11.88;;;10.88;;
42742;SDS011;28397;44.552;-0.848;2022-12-18T04:46:56;10.10;;;9.15;;
42742;SDS011;28397;44.552;-0.848;2022-12-18T04:49:22;9.85;;;9.02;;
42742;SDS011;28397;44.552;-0.848;2022-12-18T04:51:48;9.00;;;8.23;;
42742;SDS011;28397;44.552;-0.848;2022-12-18T04:54:13;8.35;;;7.65;;
42742;SDS011;28397;44.552;-0.848;2022-12-18T04:56:39;8.23;;;7.57;;
42742;SDS011;28397;44.552;-0.848;2022-12-18T04:59:05;8.00;;;7.30;;
42742;SDS011;28397;44.552;-0.848;2022-12-18T05:01:33;7.63;;;6.93;;
42742;SDS011;28397;44.552;-0.848;2022-12-18T05:03:59;7.22;;;6.72;;
42742;SDS011;28397;44.552;-0.848;2022-12-18T05:06:25;7.03;;;6.53;;
42742;SDS011;28397;44.552;-0.848;2022-12-18T05:08:51;7.65;;;6.95;;
42742;SDS011;28397;44.552;-0.848;2022-12-18T05:11:17;6.80;;;6.30;;
42742;SDS011;28397;44.552;-0.848;2022-12-18T05:13:43;6.60;;;6.10;;
42742;SDS011;28397;44.552;-0.848;2022-12-18T05:16:10;6.55;;;5.97;;
42742;SDS011;28397;44.552;-0.848;2022-12-18T05:18:36;6.75;;;6.22;;
42742;SDS011;28397;44.552;-0.848;2022-12-18T05:21:02;6.57;;;6.10;;
42742;SDS011;28397;44.552;-0.848;2022-12-18T05:23:28;7.38;;;6.72;;
42742;SDS011;28397;44.552;-0.848;2022-12-18T05:25:58;7.25;;;6.65;;
42742;SDS011;28397;44.552;-0.848;2022-12-18T05:28:27;6.85;;;6.35;;
42742;SDS011;28397;44.552;-0.848;2022-12-18T05:30:55;7.25;;;6.65;;
42742;SDS011;28397;44.552;-0.848;2022-12-18T05:33:23;6.55;;;6.05;;
42742;SDS011;28397;44.552;-0.848;2022-12-18T05:35:50;6.22;;;5.72;;
42742;SDS011;28397;44.552;-0.848;2022-12-18T05:38:17;7.00;;;6.50;;
42742;SDS011;28397;44.552;-0.848;2022-12-18T05:40:43;6.50;;;6.00;;
42742;SDS011;28397;44.552;-0.848;2022-12-18T05:43:09;7.20;;;6.70;;
42742;SDS011;28397;44.552;-0.848;2022-12-18T05:45:38;7.53;;;6.93;;
42742;SDS011;28397;44.552;-0.848;2022-12-18T05:48:04;7.10;;;6.60;;
42742;SDS011;28397;44.552;-0.848;2022-12-18T05:50:38;9.48;;;8.55;;
42742;SDS011;28397;44.552;-0.848;2022-12-18T05:53:06;10.38;;;9.43;;
42742;SDS011;28397;44.552;-0.848;2022-12-18T05:55:33;13.18;;;11.98;;
42742;SDS011;28397;44.552;-0.848;2022-12-18T05:58:00;10.20;;;9.30;;
42742;SDS011;28397;44.552;-0.848;2022-12-18T06:00:26;11.73;;;10.60;;
42742;SDS011;28397;44.552;-0.848;2022-12-18T06:02:52;14.57;;;13.07;;
42742;SDS011;28397;44.552;-0.848;2022-12-18T06:05:18;12.10;;;11.00;;
42742;SDS011;28397;44.552;-0.848;2022-12-18T06:07:44;13.25;;;11.90;;
42742;SDS011;28397;44.552;-0.848;2022-12-18T06:10:09;9.77;;;8.88;;
42742;SDS011;28397;44.552;-0.848;2022-12-18T06:12:35;8.05;;;7.35;;
42742;SDS011;28397;44.552;-0.848;2022-12-18T06:15:01;9.18;;;8.38;;
42742;SDS011;28397;44.552;-0.848;2022-12-18T06:17:28;9.60;;;8.55;;
42742;SDS011;28397;44.552;-0.848;2022-12-18T06:19:54;10.60;;;9.60;;
42742;SDS011;28397;44.552;-0.848;2022-12-18T06:22:20;10.30;;;9.25;;
42742;SDS011;28397;44.552;-0.848;2022-12-18T06:24:46;10.95;;;9.95;;
42742;SDS011;28397;44.552;-0.848;2022-12-18T06:27:12;12.18;;;10.98;;
42742;SDS011;28397;44.552;-0.848;2022-12-18T06:29:37;10.18;;;9.27;;
42742;SDS011;28397;44.552;-0.848;2022-12-18T06:32:03;11.43;;;10.23;;
42742;SDS011;28397;44.552;-0.848;2022-12-18T06:34:29;12.25;;;11.10;;
42742;SDS011;28397;44.552;-0.848;2022-12-18T06:36:56;14.68;;;13.18;;
42742;SDS011;28397;44.552;-0.848;2022-12-18T06:39:22;15.50;;;14.00;;
42742;SDS011;28397;44.552;-0.848;2022-12-18T06:41:47;11.57;;;10.43;;
42742;SDS011;28397;44.552;-0.848;2022-12-18T06:44:13;17.77;;;15.98;;
42742;SDS011;28397;44.552;-0.848;2022-12-18T06:46:39;14.38;;;12.98;;
42742;SDS011;28397;44.552;-0.848;2022-12-18T06:49:04;21.52;;;19.38;;
42742;SDS011;28397;44.552;-0.848;2022-12-18T06:51:30;16.63;;;15.05;;
42742;SDS011;28397;44.552;-0.848;2022-12-18T06:53:56;13.57;;;12.30;;
42742;SDS011;28397;44.552;-0.848;2022-12-18T06:56:21;18.35;;;16.67;;
42742;SDS011;28397;44.552;-0.848;2022-12-18T06:58:47;18.17;;;16.58;;
42742;SDS011;28397;44.552;-0.848;2022-12-18T07:01:13;10.77;;;9.85;;
42742;SDS011;28397;44.552;-0.848;2022-12-18T07:03:39;11.70;;;10.60;;
42742;SDS011;28397;44.552;-0.848;2022-12-18T07:06:06;10.40;;;9.60;;
42742;SDS011;28397;44.552;-0.848;2022-12-18T07:08:37;10.70;;;9.70;;
42742;SDS011;28397;44.552;-0.848;2022-12-18T07:11:03;9.90;;;9.10;;
42742;SDS011;28397;44.552;-0.848;2022-12-18T07:13:30;9.40;;;8.50;;
42742;SDS011;28397;44.552;-0.848;2022-12-18T07:16:02;9.13;;;8.32;;
42742;SDS011;28397;44.552;-0.848;2022-12-18T07:18:38;10.30;;;9.30;;
42742;SDS011;28397;44.552;-0.848;2022-12-18T07:21:05;9.55;;;8.60;;
42742;SDS011;28397;44.552;-0.848;2022-12-18T07:23:32;8.40;;;7.60;;
42742;SDS011;28397;44.552;-0.848;2022-12-18T07:26:05;8.68;;;7.97;;
42742;SDS011;28397;44.552;-0.848;2022-12-18T07:28:33;9.13;;;8.32;;
42742;SDS011;28397;44.552;-0.848;2022-12-18T07:31:03;7.90;;;7.18;;
42742;SDS011;28397;44.552;-0.848;2022-12-18T07:33:31;7.80;;;7.20;;
42742;SDS011;28397;44.552;-0.848;2022-12-18T07:36:04;8.65;;;7.95;;
42742;SDS011;28397;44.552;-0.848;2022-12-18T07:38:32;11.40;;;10.52;;
42742;SDS011;28397;44.552;-0.848;2022-12-18T07:41:06;7.45;;;6.90;;
42742;SDS011;28397;44.552;-0.848;2022-12-18T07:43:33;6.97;;;6.47;;
42742;SDS011;28397;44.552;-0.848;2022-12-18T07:45:59;6.88;;;6.38;;
42742;SDS011;28397;44.552;-0.848;2022-12-18T07:48:25;8.00;;;7.40;;
42742;SDS011;28397;44.552;-0.848;2022-12-18T07:50:52;6.30;;;5.82;;
42742;SDS011;28397;44.552;-0.848;2022-12-18T07:53:18;8.10;;;7.43;;
42742;SDS011;28397;44.552;-0.848;2022-12-18T07:55:43;7.60;;;7.00;;
42742;SDS011;28397;44.552;-0.848;2022-12-18T07:58:09;7.68;;;7.07;;
42742;SDS011;28397;44.552;-0.848;2022-12-18T08:00:35;7.90;;;7.30;;
42742;SDS011;28397;44.552;-0.848;2022-12-18T08:03:01;7.28;;;6.78;;
42742;SDS011;28397;44.552;-0.848;2022-12-18T08:05:27;6.40;;;5.90;;
42742;SDS011;28397;44.552;-0.848;2022-12-18T08:07:53;6.60;;;6.10;;
42742;SDS011;28397;44.552;-0.848;2022-12-18T08:10:19;6.53;;;6.03;;
42742;SDS011;28397;44.552;-0.848;2022-12-18T08:12:50;6.32;;;5.82;;
42742;SDS011;28397;44.552;-0.848;2022-12-18T08:15:16;6.10;;;5.60;;
42742;SDS011;28397;44.552;-0.848;2022-12-18T08:17:42;5.30;;;4.90;;
42742;SDS011;28397;44.552;-0.848;2022-12-18T08:20:08;5.50;;;5.10;;
42742;SDS011;28397;44.552;-0.848;2022-12-18T08:22:34;5.20;;;4.80;;
42742;SDS011;28397;44.552;-0.848;2022-12-18T08:25:00;5.10;;;4.70;;
42742;SDS011;28397;44.552;-0.848;2022-12-18T08:27:26;5.03;;;4.63;;
42742;SDS011;28397;44.552;-0.848;2022-12-18T08:29:52;5.82;;;5.32;;
42742;SDS011;28397;44.552;-0.848;2022-12-18T08:32:18;4.55;;;4.20;;
42742;SDS011;28397;44.552;-0.848;2022-12-18T08:34:43;4.13;;;3.78;;
42742;SDS011;28397;44.552;-0.848;2022-12-18T08:37:09;4.80;;;4.40;;
42742;SDS011;28397;44.552;-0.848;2022-12-18T08:39:35;4.00;;;3.70;;
42742;SDS011;28397;44.552;-0.848;2022-12-18T08:42:00;3.88;;;3.58;;
42742;SDS011;28397;44.552;-0.848;2022-12-18T08:44:44;3.70;;;3.40;;
42742;SDS011;28397;44.552;-0.848;2022-12-18T08:47:10;3.90;;;3.60;;
42742;SDS011;28397;44.552;-0.848;2022-12-18T08:49:36;3.78;;;3.47;;
42742;SDS011;28397;44.552;-0.848;2022-12-18T08:52:02;3.50;;;3.28;;
42742;SDS011;28397;44.552;-0.848;2022-12-18T08:54:28;3.50;;;3.20;;
42742;SDS011;28397;44.552;-0.848;2022-12-18T08:56:54;3.15;;;2.95;;
42742;SDS011;28397;44.552;-0.848;2022-12-18T08:59:19;3.30;;;3.10;;
42742;SDS011;28397;44.552;-0.848;2022-12-18T09:01:46;3.25;;;3.05;;
42742;SDS011;28397;44.552;-0.848;2022-12-18T09:04:12;3.25;;;3.05;;
42742;SDS011;28397;44.552;-0.848;2022-12-18T09:06:39;3.03;;;2.83;;
42742;SDS011;28397;44.552;-0.848;2022-12-18T09:09:04;3.25;;;2.95;;
42742;SDS011;28397;44.552;-0.848;2022-12-18T09:11:31;3.10;;;2.83;;
42742;SDS011;28397;44.552;-0.848;2022-12-18T09:13:57;3.20;;;3.00;;
42742;SDS011;28397;44.552;-0.848;2022-12-18T09:16:25;3.80;;;3.30;;
42742;SDS011;28397;44.552;-0.848;2022-12-18T09:18:52;3.10;;;2.90;;
42742;SDS011;28397;44.552;-0.848;2022-12-18T09:21:25;2.80;;;2.60;;
42742;SDS011;28397;44.552;-0.848;2022-12-18T09:23:53;2.90;;;2.70;;
42742;SDS011;28397;44.552;-0.848;2022-12-18T09:26:20;2.88;;;2.67;;
42742;SDS011;28397;44.552;-0.848;2022-12-18T09:28:47;3.28;;;2.90;;
42742;SDS011;28397;44.552;-0.848;2022-12-18T09:31:13;2.75;;;2.55;;
42742;SDS011;28397;44.552;-0.848;2022-12-18T09:33:41;2.78;;;2.58;;
42742;SDS011;28397;44.552;-0.848;2022-12-18T09:36:07;2.53;;;2.33;;
42742;SDS011;28397;44.552;-0.848;2022-12-18T09:38:35;6.40;;;5.80;;
42742;SDS011;28397;44.552;-0.848;2022-12-18T09:41:17;6.55;;;5.95;;
42742;SDS011;28397;44.552;-0.848;2022-12-18T09:43:45;2.92;;;2.72;;
42742;SDS011;28397;44.552;-0.848;2022-12-18T09:46:19;3.00;;;2.70;;
42742;SDS011;28397;44.552;-0.848;2022-12-18T09:48:54;4.18;;;3.78;;
42742;SDS011;28397;44.552;-0.848;2022-12-18T09:51:28;3.60;;;3.30;;
42742;SDS011;28397;44.552;-0.848;2022-12-18T09:54:03;3.47;;;3.17;;
42742;SDS011;28397;44.552;-0.848;2022-12-18T09:56:35;3.22;;;2.92;;
42742;SDS011;28397;44.552;-0.848;2022-12-18T09:59:03;2.65;;;2.45;;
42742;SDS011;28397;44.552;-0.848;2022-12-18T10:01:30;2.47;;;2.28;;
42742;SDS011;28397;44.552;-0.848;2022-12-18T10:03:57;2.75;;;2.55;;
42742;SDS011;28397;44.552;-0.848;2022-12-18T10:06:28;2.85;;;2.63;;
42742;SDS011;28397;44.552;-0.848;2022-12-18T10:09:24;2.63;;;2.28;;
42742;SDS011;28397;44.552;-0.848;2022-12-18T10:17:26;2.35;;;2.15;;
42742;SDS011;28397;44.552;-0.848;2022-12-18T10:20:02;3.22;;;2.33;;
42742;SDS011;28397;44.552;-0.848;2022-12-18T10:28:07;3.55;;;2.10;;
42742;SDS011;28397;44.552;-0.848;2022-12-18T10:30:37;2.50;;;2.30;;
42742;SDS011;28397;44.552;-0.848;2022-12-18T10:33:05;2.50;;;2.30;;
42742;SDS011;28397;44.552;-0.848;2022-12-18T10:35:35;2.17;;;1.98;;
42742;SDS011;28397;44.552;-0.848;2022-12-18T10:38:06;4.28;;;2.22;;
42742;SDS011;28397;44.552;-0.848;2022-12-18T10:43:26;2.20;;;2.00;;
42742;SDS011;28397;44.552;-0.848;2022-12-18T10:46:15;2.53;;;2.20;;
42742;SDS011;28397;44.552;-0.848;2022-12-18T10:51:46;2.25;;;2.05;;
42742;SDS011;28397;44.552;-0.848;2022-12-18T10:54:05;2.40;;;2.20;;
42742;SDS011;28397;44.552;-0.848;2022-12-18T10:56:39;2.40;;;2.20;;
42742;SDS011;28397;44.552;-0.848;2022-12-18T10:59:09;2.72;;;2.20;;
42742;SDS011;28397;44.552;-0.848;2022-12-18T11:04:30;1.90;;;1.80;;
42742;SDS011;28397;44.552;-0.848;2022-12-18T11:07:00;1.73;;;1.63;;
42742;SDS011;28397;44.552;-0.848;2022-12-18T11:12:04;1.77;;;1.58;;
42742;SDS011;28397;44.552;-0.848;2022-12-18T11:14:43;2.28;;;1.90;;
42742;SDS011;28397;44.552;-0.848;2022-12-18T11:17:22;2.15;;;1.95;;
42742;SDS011;28397;44.552;-0.848;2022-12-18T11:19:58;1.83;;;1.63;;
42742;SDS011;28397;44.552;-0.848;2022-12-18T11:22:25;2.03;;;1.83;;
42742;SDS011;28397;44.552;-0.848;2022-12-18T11:24:57;2.42;;;2.17;;
42742;SDS011;28397;44.552;-0.848;2022-12-18T11:27:36;2.03;;;1.83;;
42742;SDS011;28397;44.552;-0.848;2022-12-18T11:43:46;2.03;;;1.90;;
42742;SDS011;28397;44.552;-0.848;2022-12-18T11:46:24;3.28;;;2.20;;
42742;SDS011;28397;44.552;-0.848;2022-12-18T11:51:37;2.72;;;1.60;;
42742;SDS011;28397;44.552;-0.848;2022-12-18T11:54:16;1.50;;;1.30;;
42742;SDS011;28397;44.552;-0.848;2022-12-18T12:08:02;1.73;;;1.63;;
42742;SDS011;28397;44.552;-0.848;2022-12-18T12:16:16;2.75;;;1.33;;
42742;SDS011;28397;44.552;-0.848;2022-12-18T12:21:47;2.60;;;2.05;;
42742;SDS011;28397;44.552;-0.848;2022-12-18T12:24:24;2.05;;;1.70;;
42742;SDS011;28397;44.552;-0.848;2022-12-18T12:30:24;2.90;;;1.65;;
42742;SDS011;28397;44.552;-0.848;2022-12-18T12:35:37;3.22;;;1.83;;
42742;SDS011;28397;44.552;-0.848;2022-12-18T12:38:28;2.20;;;1.90;;
42742;SDS011;28397;44.552;-0.848;2022-12-18T12:41:09;1.50;;;1.40;;
42742;SDS011;28397;44.552;-0.848;2022-12-18T12:44:01;1.67;;;1.58;;
42742;SDS011;28397;44.552;-0.848;2022-12-18T12:46:31;1.55;;;1.45;;
42742;SDS011;28397;44.552;-0.848;2022-12-18T12:49:02;1.88;;;1.55;;
42742;SDS011;28397;44.552;-0.848;2022-12-18T12:51:32;1.77;;;1.40;;
42742;SDS011;28397;44.552;-0.848;2022-12-18T12:54:00;1.70;;;1.60;;
42742;SDS011;28397;44.552;-0.848;2022-12-18T12:57:05;2.35;;;1.70;;
42742;SDS011;28397;44.552;-0.848;2022-12-18T13:05:23;2.85;;;1.50;;
42742;SDS011;28397;44.552;-0.848;2022-12-18T13:07:53;1.85;;;1.60;;
42742;SDS011;28397;44.552;-0.848;2022-12-18T13:10:24;2.15;;;1.60;;
42742;SDS011;28397;44.552;-0.848;2022-12-18T13:20:37;1.95;;;1.60;;
42742;SDS011;28397;44.552;-0.848;2022-12-18T13:23:19;1.90;;;1.50;;
42742;SDS011;28397;44.552;-0.848;2022-12-18T13:26:33;3.08;;;1.75;;
42742;SDS011;28397;44.552;-0.848;2022-12-18T13:31:14;2.60;;;1.90;;
42742;SDS011;28397;44.552;-0.848;2022-12-18T13:34:20;2.58;;;2.00;;
42742;SDS011;28397;44.552;-0.848;2022-12-18T13:36:47;2.80;;;2.50;;
42742;SDS011;28397;44.552;-0.848;2022-12-18T13:41:40;2.75;;;2.47;;
42742;SDS011;28397;44.552;-0.848;2022-12-18T13:47:05;1.80;;;1.70;;
42742;SDS011;28397;44.552;-0.848;2022-12-18T13:49:56;2.28;;;1.80;;
42742;SDS011;28397;44.552;-0.848;2022-12-18T13:52:26;1.95;;;1.77;;
42742;SDS011;28397;44.552;-0.848;2022-12-18T13:54:58;1.67;;;1.58;;
42742;SDS011;28397;44.552;-0.848;2022-12-18T13:57:30;2.10;;;1.90;;
42742;SDS011;28397;44.552;-0.848;2022-12-18T14:02:47;1.98;;;1.80;;
42742;SDS011;28397;44.552;-0.848;2022-12-18T14:08:00;4.47;;;2.10;;
42742;SDS011;28397;44.552;-0.848;2022-12-18T14:10:33;2.20;;;1.80;;
42742;SDS011;28397;44.552;-0.848;2022-12-18T14:13:03;3.28;;;2.00;;
42742;SDS011;28397;44.552;-0.848;2022-12-18T14:15:32;4.28;;;2.10;;
42742;SDS011;28397;44.552;-0.848;2022-12-18T14:18:15;2.45;;;1.95;;
42742;SDS011;28397;44.552;-0.848;2022-12-18T14:21:02;3.22;;;2.20;;
42742;SDS011;28397;44.552;-0.848;2022-12-18T14:23:33;2.55;;;2.05;;
42742;SDS011;28397;44.552;-0.848;2022-12-18T14:25:59;2.08;;;1.88;;
42742;SDS011;28397;44.552;-0.848;2022-12-18T14:28:26;2.80;;;2.40;;
42742;SDS011;28397;44.552;-0.848;2022-12-18T14:30:52;2.35;;;2.08;;
42742;SDS011;28397;44.552;-0.848;2022-12-18T14:33:24;5.50;;;3.17;;
42742;SDS011;28397;44.552;-0.848;2022-12-18T14:35:58;3.53;;;2.65;;
42742;SDS011;28397;44.552;-0.848;2022-12-18T14:38:35;2.75;;;2.30;;
42742;SDS011;28397;44.552;-0.848;2022-12-18T14:41:09;2.65;;;2.28;;
42742;SDS011;28397;44.552;-0.848;2022-12-18T14:43:38;2.78;;;2.08;;
42742;SDS011;28397;44.552;-0.848;2022-12-18T14:46:28;3.55;;;2.65;;
42742;SDS011;28397;44.552;-0.848;2022-12-18T14:48:57;3.25;;;2.60;;
42742;SDS011;28397;44.552;-0.848;2022-12-18T14:51:27;3.75;;;2.83;;
42742;SDS011;28397;44.552;-0.848;2022-12-18T14:53:58;3.10;;;2.75;;
42742;SDS011;28397;44.552;-0.848;2022-12-18T14:56:27;3.58;;;3.28;;
42742;SDS011;28397;44.552;-0.848;2022-12-18T14:58:59;4.57;;;2.83;;
42742;SDS011;28397;44.552;-0.848;2022-12-18T15:04:02;3.65;;;3.17;;
42742;SDS011;28397;44.552;-0.848;2022-12-18T15:06:34;3.92;;;3.50;;
42742;SDS011;28397;44.552;-0.848;2022-12-18T15:11:47;3.13;;;2.80;;
42742;SDS011;28397;44.552;-0.848;2022-12-18T15:17:17;2.90;;;2.60;;
42742;SDS011;28397;44.552;-0.848;2022-12-18T15:19:45;3.42;;;2.90;;
42742;SDS011;28397;44.552;-0.848;2022-12-18T15:22:16;4.30;;;3.85;;
42742;SDS011;28397;44.552;-0.848;2022-12-18T15:24:42;5.82;;;4.75;;
42742;SDS011;28397;44.552;-0.848;2022-12-18T15:27:53;4.03;;;3.28;;
42742;SDS011;28397;44.552;-0.848;2022-12-18T15:32:34;4.25;;;3.35;;
42742;SDS011;28397;44.552;-0.848;2022-12-18T15:37:41;3.63;;;3.20;;
42742;SDS011;28397;44.552;-0.848;2022-12-18T15:40:08;6.18;;;5.03;;
42742;SDS011;28397;44.552;-0.848;2022-12-18T15:42:38;6.13;;;5.53;;
42742;SDS011;28397;44.552;-0.848;2022-12-18T15:45:22;4.38;;;3.95;;
42742;SDS011;28397;44.552;-0.848;2022-12-18T15:47:48;2.80;;;2.60;;
42742;SDS011;28397;44.552;-0.848;2022-12-18T15:50:14;3.08;;;2.78;;
42742;SDS011;28397;44.552;-0.848;2022-12-18T15:52:41;4.28;;;2.80;;
42742;SDS011;28397;44.552;-0.848;2022-12-18T15:55:11;4.13;;;3.10;;
42742;SDS011;28397;44.552;-0.848;2022-12-18T15:58:09;3.72;;;3.03;;
42742;SDS011;28397;44.552;-0.848;2022-12-18T16:00:36;3.35;;;2.95;;
42742;SDS011;28397;44.552;-0.848;2022-12-18T16:03:04;3.60;;;3.00;;
42742;SDS011;28397;44.552;-0.848;2022-12-18T16:05:31;5.40;;;4.10;;
42742;SDS011;28397;44.552;-0.848;2022-12-18T16:07:57;4.53;;;3.17;;
42742;SDS011;28397;44.552;-0.848;2022-12-18T16:10:24;3.42;;;2.95;;
42742;SDS011;28397;44.552;-0.848;2022-12-18T16:12:51;4.47;;;3.22;;
42742;SDS011;28397;44.552;-0.848;2022-12-18T16:15:17;4.10;;;3.30;;
42742;SDS011;28397;44.552;-0.848;2022-12-18T16:17:43;4.95;;;3.47;;
42742;SDS011;28397;44.552;-0.848;2022-12-18T16:20:13;4.70;;;3.03;;
42742;SDS011;28397;44.552;-0.848;2022-12-18T16:22:43;4.28;;;3.10;;
42742;SDS011;28397;44.552;-0.848;2022-12-18T16:25:19;4.22;;;3.03;;
42742;SDS011;28397;44.552;-0.848;2022-12-18T16:27:46;3.67;;;3.20;;
42742;SDS011;28397;44.552;-0.848;2022-12-18T16:30:13;6.60;;;3.58;;
42742;SDS011;28397;44.552;-0.848;2022-12-18T16:32:43;3.80;;;3.50;;
42742;SDS011;28397;44.552;-0.848;2022-12-18T16:35:13;5.20;;;3.92;;
42742;SDS011;28397;44.552;-0.848;2022-12-18T16:37:40;4.35;;;3.80;;
42742;SDS011;28397;44.552;-0.848;2022-12-18T16:40:07;6.78;;;3.60;;
42742;SDS011;28397;44.552;-0.848;2022-12-18T16:42:34;4.18;;;3.50;;
42742;SDS011;28397;44.552;-0.848;2022-12-18T16:45:01;4.10;;;3.25;;
42742;SDS011;28397;44.552;-0.848;2022-12-18T16:47:28;4.90;;;3.50;;
42742;SDS011;28397;44.552;-0.848;2022-12-18T16:49:54;6.10;;;3.85;;
42742;SDS011;28397;44.552;-0.848;2022-12-18T16:52:20;4.55;;;3.13;;
42742;SDS011;28397;44.552;-0.848;2022-12-18T16:54:46;4.10;;;3.70;;
42742;SDS011;28397;44.552;-0.848;2022-12-18T16:57:12;4.03;;;3.25;;
42742;SDS011;28397;44.552;-0.848;2022-12-18T16:59:39;5.70;;;3.30;;